sensor_id;sensor_type;location;lat;lon;timestamp;P1;durP1;ratioP1;P2;durP2;ratioP2
38629;SDS011;24384;51.988;4.644;2022-08-03T00:01:19;11.05;;;2.10;;
38629;SDS011;24384;51.988;4.644;2022-08-03T00:03:45;12.20;;;2.33;;
38629;SDS011;24384;51.988;4.644;2022-08-03T00:06:10;12.25;;;2.13;;
38629;SDS011;24384;51.988;4.644;2022-08-03T00:08:35;17.15;;;2.22;;
38629;SDS011;24384;51.988;4.644;2022-08-03T00:11:01;11.27;;;1.88;;
38629;SDS011;24384;51.988;4.644;2022-08-03T00:13:27;9.55;;;2.03;;
38629;SDS011;24384;51.988;4.644;2022-08-03T00:15:52;9.85;;;1.75;;
38629;SDS011;24384;51.988;4.644;2022-08-03T00:18:18;12.32;;;1.95;;
38629;SDS011;24384;51.988;4.644;2022-08-03T00:20:44;8.65;;;2.05;;
38629;SDS011;24384;51.988;4.644;2022-08-03T00:23:10;7.47;;;1.80;;
38629;SDS011;24384;51.988;4.644;2022-08-03T00:25:35;11.45;;;2.00;;
38629;SDS011;24384;51.988;4.644;2022-08-03T00:28:04;11.88;;;1.67;;
38629;SDS011;24384;51.988;4.644;2022-08-03T00:30:30;11.70;;;1.65;;
38629;SDS011;24384;51.988;4.644;2022-08-03T00:32:57;12.52;;;2.50;;
38629;SDS011;24384;51.988;4.644;2022-08-03T00:35:23;14.38;;;2.30;;
38629;SDS011;24384;51.988;4.644;2022-08-03T00:37:50;13.55;;;2.03;;
38629;SDS011;24384;51.988;4.644;2022-08-03T00:40:16;6.20;;;2.08;;
38629;SDS011;24384;51.988;4.644;2022-08-03T00:42:46;10.02;;;2.00;;
38629;SDS011;24384;51.988;4.644;2022-08-03T00:45:12;16.63;;;1.95;;
38629;SDS011;24384;51.988;4.644;2022-08-03T00:47:38;11.80;;;3.05;;
38629;SDS011;24384;51.988;4.644;2022-08-03T00:50:03;11.57;;;2.08;;
38629;SDS011;24384;51.988;4.644;2022-08-03T00:52:29;10.63;;;2.00;;
38629;SDS011;24384;51.988;4.644;2022-08-03T00:54:54;10.82;;;2.00;;
38629;SDS011;24384;51.988;4.644;2022-08-03T00:57:20;11.25;;;2.50;;
38629;SDS011;24384;51.988;4.644;2022-08-03T00:59:45;10.43;;;2.28;;
38629;SDS011;24384;51.988;4.644;2022-08-03T01:02:11;8.65;;;1.88;;
38629;SDS011;24384;51.988;4.644;2022-08-03T01:04:36;12.07;;;2.30;;
38629;SDS011;24384;51.988;4.644;2022-08-03T01:07:06;8.88;;;2.60;;
38629;SDS011;24384;51.988;4.644;2022-08-03T01:12:09;17.73;;;2.75;;
38629;SDS011;24384;51.988;4.644;2022-08-03T01:14:38;7.10;;;2.45;;
38629;SDS011;24384;51.988;4.644;2022-08-03T01:20:03;10.43;;;2.10;;
38629;SDS011;24384;51.988;4.644;2022-08-03T01:25:05;15.43;;;2.60;;
38629;SDS011;24384;51.988;4.644;2022-08-03T01:30:20;9.88;;;2.20;;
38629;SDS011;24384;51.988;4.644;2022-08-03T01:32:57;10.93;;;2.63;;
38629;SDS011;24384;51.988;4.644;2022-08-03T01:35:38;15.15;;;2.55;;
38629;SDS011;24384;51.988;4.644;2022-08-03T01:38:20;10.50;;;1.88;;
38629;SDS011;24384;51.988;4.644;2022-08-03T01:40:48;12.55;;;3.13;;
38629;SDS011;24384;51.988;4.644;2022-08-03T01:43:18;15.20;;;2.72;;
38629;SDS011;24384;51.988;4.644;2022-08-03T01:45:45;15.18;;;2.60;;
38629;SDS011;24384;51.988;4.644;2022-08-03T01:48:12;11.77;;;2.45;;
38629;SDS011;24384;51.988;4.644;2022-08-03T01:50:41;10.70;;;2.30;;
38629;SDS011;24384;51.988;4.644;2022-08-03T01:53:09;13.32;;;2.45;;
38629;SDS011;24384;51.988;4.644;2022-08-03T01:55:38;9.75;;;2.33;;
38629;SDS011;24384;51.988;4.644;2022-08-03T01:58:04;12.63;;;2.35;;
38629;SDS011;24384;51.988;4.644;2022-08-03T02:00:34;7.20;;;2.22;;
38629;SDS011;24384;51.988;4.644;2022-08-03T02:03:01;9.75;;;2.38;;
38629;SDS011;24384;51.988;4.644;2022-08-03T02:05:32;9.70;;;2.40;;
38629;SDS011;24384;51.988;4.644;2022-08-03T02:07:59;10.23;;;2.33;;
38629;SDS011;24384;51.988;4.644;2022-08-03T02:10:27;15.85;;;2.80;;
38629;SDS011;24384;51.988;4.644;2022-08-03T02:12:55;9.38;;;2.40;;
38629;SDS011;24384;51.988;4.644;2022-08-03T02:15:26;14.73;;;2.47;;
38629;SDS011;24384;51.988;4.644;2022-08-03T02:17:52;11.95;;;2.70;;
38629;SDS011;24384;51.988;4.644;2022-08-03T02:20:20;12.52;;;2.38;;
38629;SDS011;24384;51.988;4.644;2022-08-03T02:22:45;8.15;;;2.30;;
38629;SDS011;24384;51.988;4.644;2022-08-03T02:25:12;10.20;;;2.50;;
38629;SDS011;24384;51.988;4.644;2022-08-03T02:27:40;10.88;;;2.63;;
38629;SDS011;24384;51.988;4.644;2022-08-03T02:30:10;9.77;;;2.40;;
38629;SDS011;24384;51.988;4.644;2022-08-03T02:32:38;10.25;;;2.05;;
38629;SDS011;24384;51.988;4.644;2022-08-03T02:35:05;11.50;;;2.17;;
38629;SDS011;24384;51.988;4.644;2022-08-03T02:37:37;15.15;;;2.88;;
38629;SDS011;24384;51.988;4.644;2022-08-03T02:40:06;13.73;;;2.80;;
38629;SDS011;24384;51.988;4.644;2022-08-03T02:42:34;10.98;;;2.22;;
38629;SDS011;24384;51.988;4.644;2022-08-03T02:45:01;18.23;;;2.95;;
38629;SDS011;24384;51.988;4.644;2022-08-03T02:47:29;7.93;;;2.65;;
38629;SDS011;24384;51.988;4.644;2022-08-03T02:49:56;13.23;;;3.53;;
38629;SDS011;24384;51.988;4.644;2022-08-03T02:52:24;10.75;;;4.03;;
38629;SDS011;24384;51.988;4.644;2022-08-03T02:54:53;20.88;;;5.65;;
38629;SDS011;24384;51.988;4.644;2022-08-03T02:57:21;18.63;;;7.45;;
38629;SDS011;24384;51.988;4.644;2022-08-03T02:59:48;24.23;;;9.10;;
38629;SDS011;24384;51.988;4.644;2022-08-03T03:02:15;21.30;;;9.73;;
38629;SDS011;24384;51.988;4.644;2022-08-03T03:04:43;21.25;;;10.25;;
38629;SDS011;24384;51.988;4.644;2022-08-03T03:07:10;22.13;;;10.85;;
38629;SDS011;24384;51.988;4.644;2022-08-03T03:09:37;17.17;;;8.43;;
38629;SDS011;24384;51.988;4.644;2022-08-03T03:12:03;21.20;;;8.40;;
38629;SDS011;24384;51.988;4.644;2022-08-03T03:14:31;21.27;;;7.63;;
38629;SDS011;24384;51.988;4.644;2022-08-03T03:16:58;19.50;;;6.68;;
38629;SDS011;24384;51.988;4.644;2022-08-03T03:19:25;17.77;;;6.35;;
38629;SDS011;24384;51.988;4.644;2022-08-03T03:21:51;18.10;;;4.90;;
38629;SDS011;24384;51.988;4.644;2022-08-03T03:24:18;21.38;;;4.90;;
38629;SDS011;24384;51.988;4.644;2022-08-03T03:26:44;19.38;;;4.60;;
38629;SDS011;24384;51.988;4.644;2022-08-03T03:29:09;13.15;;;3.40;;
38629;SDS011;24384;51.988;4.644;2022-08-03T03:31:35;15.68;;;3.30;;
38629;SDS011;24384;51.988;4.644;2022-08-03T03:34:01;19.98;;;3.05;;
38629;SDS011;24384;51.988;4.644;2022-08-03T03:36:28;17.73;;;3.00;;
38629;SDS011;24384;51.988;4.644;2022-08-03T03:38:53;15.75;;;2.85;;
38629;SDS011;24384;51.988;4.644;2022-08-03T03:41:18;11.07;;;2.58;;
38629;SDS011;24384;51.988;4.644;2022-08-03T03:43:44;10.43;;;2.67;;
38629;SDS011;24384;51.988;4.644;2022-08-03T03:46:13;13.38;;;3.13;;
38629;SDS011;24384;51.988;4.644;2022-08-03T03:48:38;12.95;;;3.03;;
38629;SDS011;24384;51.988;4.644;2022-08-03T03:51:04;14.48;;;3.50;;
38629;SDS011;24384;51.988;4.644;2022-08-03T03:53:31;11.88;;;3.00;;
38629;SDS011;24384;51.988;4.644;2022-08-03T03:55:56;12.80;;;3.25;;
38629;SDS011;24384;51.988;4.644;2022-08-03T03:58:22;13.15;;;4.25;;
38629;SDS011;24384;51.988;4.644;2022-08-03T04:00:47;17.13;;;3.05;;
38629;SDS011;24384;51.988;4.644;2022-08-03T04:03:13;11.50;;;3.03;;
38629;SDS011;24384;51.988;4.644;2022-08-03T04:05:39;12.07;;;3.33;;
38629;SDS011;24384;51.988;4.644;2022-08-03T04:08:23;16.27;;;3.45;;
38629;SDS011;24384;51.988;4.644;2022-08-03T04:11:12;15.43;;;3.30;;
38629;SDS011;24384;51.988;4.644;2022-08-03T04:13:47;14.52;;;2.83;;
38629;SDS011;24384;51.988;4.644;2022-08-03T04:16:16;11.07;;;2.83;;
38629;SDS011;24384;51.988;4.644;2022-08-03T04:18:45;15.52;;;3.25;;
38629;SDS011;24384;51.988;4.644;2022-08-03T04:21:15;17.88;;;3.17;;
38629;SDS011;24384;51.988;4.644;2022-08-03T04:23:44;13.60;;;2.83;;
38629;SDS011;24384;51.988;4.644;2022-08-03T04:26:13;17.60;;;2.95;;
38629;SDS011;24384;51.988;4.644;2022-08-03T04:28:43;18.67;;;3.63;;
38629;SDS011;24384;51.988;4.644;2022-08-03T04:31:10;12.15;;;2.72;;
38629;SDS011;24384;51.988;4.644;2022-08-03T04:33:37;16.65;;;3.47;;
38629;SDS011;24384;51.988;4.644;2022-08-03T04:36:04;15.38;;;3.15;;
38629;SDS011;24384;51.988;4.644;2022-08-03T04:38:33;21.00;;;3.10;;
38629;SDS011;24384;51.988;4.644;2022-08-03T04:41:02;22.08;;;3.80;;
38629;SDS011;24384;51.988;4.644;2022-08-03T04:43:32;19.70;;;3.95;;
38629;SDS011;24384;51.988;4.644;2022-08-03T04:45:58;12.02;;;3.22;;
38629;SDS011;24384;51.988;4.644;2022-08-03T04:48:24;18.40;;;3.60;;
38629;SDS011;24384;51.988;4.644;2022-08-03T04:50:49;14.75;;;3.78;;
38629;SDS011;24384;51.988;4.644;2022-08-03T04:53:15;18.02;;;3.20;;
38629;SDS011;24384;51.988;4.644;2022-08-03T04:55:42;20.80;;;3.50;;
38629;SDS011;24384;51.988;4.644;2022-08-03T04:58:07;17.30;;;3.40;;
38629;SDS011;24384;51.988;4.644;2022-08-03T05:00:33;9.25;;;2.70;;
38629;SDS011;24384;51.988;4.644;2022-08-03T05:02:59;15.10;;;3.38;;
38629;SDS011;24384;51.988;4.644;2022-08-03T05:05:25;17.23;;;3.50;;
38629;SDS011;24384;51.988;4.644;2022-08-03T05:07:50;20.42;;;4.32;;
38629;SDS011;24384;51.988;4.644;2022-08-03T05:10:16;14.77;;;2.78;;
38629;SDS011;24384;51.988;4.644;2022-08-03T05:12:42;13.52;;;3.22;;
38629;SDS011;24384;51.988;4.644;2022-08-03T05:15:14;12.05;;;2.95;;
38629;SDS011;24384;51.988;4.644;2022-08-03T05:17:40;15.02;;;3.03;;
38629;SDS011;24384;51.988;4.644;2022-08-03T05:20:05;13.40;;;2.95;;
38629;SDS011;24384;51.988;4.644;2022-08-03T05:22:31;12.82;;;3.30;;
38629;SDS011;24384;51.988;4.644;2022-08-03T05:24:57;21.15;;;3.65;;
38629;SDS011;24384;51.988;4.644;2022-08-03T05:27:22;16.70;;;3.35;;
38629;SDS011;24384;51.988;4.644;2022-08-03T05:29:48;20.45;;;3.67;;
38629;SDS011;24384;51.988;4.644;2022-08-03T05:32:14;18.15;;;4.00;;
38629;SDS011;24384;51.988;4.644;2022-08-03T05:34:41;15.07;;;3.58;;
38629;SDS011;24384;51.988;4.644;2022-08-03T05:37:07;16.60;;;3.78;;
38629;SDS011;24384;51.988;4.644;2022-08-03T05:39:32;19.33;;;3.55;;
38629;SDS011;24384;51.988;4.644;2022-08-03T05:41:58;15.45;;;3.95;;
38629;SDS011;24384;51.988;4.644;2022-08-03T05:44:24;21.02;;;4.10;;
38629;SDS011;24384;51.988;4.644;2022-08-03T05:46:50;20.92;;;4.18;;
38629;SDS011;24384;51.988;4.644;2022-08-03T05:49:16;14.05;;;3.45;;
38629;SDS011;24384;51.988;4.644;2022-08-03T05:51:41;18.08;;;4.15;;
38629;SDS011;24384;51.988;4.644;2022-08-03T05:54:07;18.00;;;5.10;;
38629;SDS011;24384;51.988;4.644;2022-08-03T05:56:32;19.42;;;5.10;;
38629;SDS011;24384;51.988;4.644;2022-08-03T05:58:57;11.50;;;4.03;;
38629;SDS011;24384;51.988;4.644;2022-08-03T06:01:23;16.27;;;4.88;;
38629;SDS011;24384;51.988;4.644;2022-08-03T06:03:49;15.77;;;4.97;;
38629;SDS011;24384;51.988;4.644;2022-08-03T06:06:16;16.35;;;5.63;;
38629;SDS011;24384;51.988;4.644;2022-08-03T06:08:42;17.75;;;7.13;;
38629;SDS011;24384;51.988;4.644;2022-08-03T06:11:08;21.38;;;7.18;;
38629;SDS011;24384;51.988;4.644;2022-08-03T06:13:34;16.35;;;7.47;;
38629;SDS011;24384;51.988;4.644;2022-08-03T06:15:59;20.88;;;7.22;;
38629;SDS011;24384;51.988;4.644;2022-08-03T06:18:25;18.20;;;9.02;;
38629;SDS011;24384;51.988;4.644;2022-08-03T06:20:50;22.73;;;9.65;;
38629;SDS011;24384;51.988;4.644;2022-08-03T06:23:17;22.77;;;9.43;;
38629;SDS011;24384;51.988;4.644;2022-08-03T06:25:42;22.95;;;9.45;;
38629;SDS011;24384;51.988;4.644;2022-08-03T06:28:08;24.30;;;9.13;;
38629;SDS011;24384;51.988;4.644;2022-08-03T06:30:34;20.75;;;8.98;;
38629;SDS011;24384;51.988;4.644;2022-08-03T06:33:00;22.15;;;10.40;;
38629;SDS011;24384;51.988;4.644;2022-08-03T06:35:25;22.65;;;10.30;;
38629;SDS011;24384;51.988;4.644;2022-08-03T06:37:52;19.33;;;8.80;;
38629;SDS011;24384;51.988;4.644;2022-08-03T06:40:19;28.27;;;9.43;;
38629;SDS011;24384;51.988;4.644;2022-08-03T06:42:53;20.20;;;8.75;;
38629;SDS011;24384;51.988;4.644;2022-08-03T06:45:18;24.05;;;9.75;;
38629;SDS011;24384;51.988;4.644;2022-08-03T06:47:44;18.45;;;9.02;;
38629;SDS011;24384;51.988;4.644;2022-08-03T06:50:09;22.33;;;9.65;;
38629;SDS011;24384;51.988;4.644;2022-08-03T06:52:34;22.80;;;9.30;;
38629;SDS011;24384;51.988;4.644;2022-08-03T06:55:00;28.25;;;10.13;;
38629;SDS011;24384;51.988;4.644;2022-08-03T06:57:25;22.20;;;11.43;;
38629;SDS011;24384;51.988;4.644;2022-08-03T06:59:51;20.05;;;10.05;;
38629;SDS011;24384;51.988;4.644;2022-08-03T07:02:16;21.05;;;9.38;;
38629;SDS011;24384;51.988;4.644;2022-08-03T07:05:02;20.05;;;9.98;;
38629;SDS011;24384;51.988;4.644;2022-08-03T07:07:28;18.15;;;9.32;;
38629;SDS011;24384;51.988;4.644;2022-08-03T07:09:53;25.27;;;9.23;;
38629;SDS011;24384;51.988;4.644;2022-08-03T07:12:19;18.98;;;9.57;;
38629;SDS011;24384;51.988;4.644;2022-08-03T07:14:44;30.80;;;10.13;;
38629;SDS011;24384;51.988;4.644;2022-08-03T07:17:09;20.92;;;10.95;;
38629;SDS011;24384;51.988;4.644;2022-08-03T07:19:35;23.63;;;11.07;;
38629;SDS011;24384;51.988;4.644;2022-08-03T07:22:00;29.45;;;12.60;;
38629;SDS011;24384;51.988;4.644;2022-08-03T07:24:27;26.55;;;12.13;;
38629;SDS011;24384;51.988;4.644;2022-08-03T07:26:53;19.80;;;13.27;;
38629;SDS011;24384;51.988;4.644;2022-08-03T07:29:19;20.80;;;11.13;;
38629;SDS011;24384;51.988;4.644;2022-08-03T07:31:44;26.40;;;13.10;;
38629;SDS011;24384;51.988;4.644;2022-08-03T07:34:10;24.25;;;13.02;;
38629;SDS011;24384;51.988;4.644;2022-08-03T07:36:35;33.30;;;13.30;;
38629;SDS011;24384;51.988;4.644;2022-08-03T07:39:01;22.25;;;13.43;;
38629;SDS011;24384;51.988;4.644;2022-08-03T07:41:26;25.25;;;13.52;;
38629;SDS011;24384;51.988;4.644;2022-08-03T07:43:52;22.52;;;12.48;;
38629;SDS011;24384;51.988;4.644;2022-08-03T07:46:17;25.52;;;13.48;;
38629;SDS011;24384;51.988;4.644;2022-08-03T07:48:43;23.48;;;13.23;;
38629;SDS011;24384;51.988;4.644;2022-08-03T07:51:08;23.10;;;12.82;;
38629;SDS011;24384;51.988;4.644;2022-08-03T07:53:33;22.48;;;13.18;;
38629;SDS011;24384;51.988;4.644;2022-08-03T07:55:59;23.60;;;11.48;;
38629;SDS011;24384;51.988;4.644;2022-08-03T07:58:24;25.17;;;11.77;;
38629;SDS011;24384;51.988;4.644;2022-08-03T08:00:50;25.50;;;11.40;;
38629;SDS011;24384;51.988;4.644;2022-08-03T08:03:16;23.10;;;11.82;;
38629;SDS011;24384;51.988;4.644;2022-08-03T08:05:42;20.02;;;10.90;;
38629;SDS011;24384;51.988;4.644;2022-08-03T08:08:08;21.58;;;11.65;;
38629;SDS011;24384;51.988;4.644;2022-08-03T08:10:33;17.02;;;10.05;;
38629;SDS011;24384;51.988;4.644;2022-08-03T08:12:59;25.75;;;12.70;;
38629;SDS011;24384;51.988;4.644;2022-08-03T08:15:25;20.40;;;11.30;;
38629;SDS011;24384;51.988;4.644;2022-08-03T08:17:52;24.55;;;10.82;;
38629;SDS011;24384;51.988;4.644;2022-08-03T08:20:21;21.17;;;10.40;;
38629;SDS011;24384;51.988;4.644;2022-08-03T08:22:48;21.83;;;10.95;;
38629;SDS011;24384;51.988;4.644;2022-08-03T08:25:14;23.80;;;11.13;;
38629;SDS011;24384;51.988;4.644;2022-08-03T08:27:43;22.75;;;11.00;;
38629;SDS011;24384;51.988;4.644;2022-08-03T08:30:11;25.02;;;11.23;;
38629;SDS011;24384;51.988;4.644;2022-08-03T08:32:37;21.75;;;11.30;;
38629;SDS011;24384;51.988;4.644;2022-08-03T08:35:03;21.00;;;10.40;;
38629;SDS011;24384;51.988;4.644;2022-08-03T08:37:30;25.40;;;10.02;;
38629;SDS011;24384;51.988;4.644;2022-08-03T08:39:56;24.65;;;10.63;;
38629;SDS011;24384;51.988;4.644;2022-08-03T08:42:21;21.90;;;9.85;;
38629;SDS011;24384;51.988;4.644;2022-08-03T08:44:47;18.83;;;9.63;;
38629;SDS011;24384;51.988;4.644;2022-08-03T08:47:13;15.05;;;8.32;;
38629;SDS011;24384;51.988;4.644;2022-08-03T08:49:38;18.02;;;9.68;;
38629;SDS011;24384;51.988;4.644;2022-08-03T08:52:06;21.23;;;8.98;;
38629;SDS011;24384;51.988;4.644;2022-08-03T08:54:32;22.80;;;9.32;;
38629;SDS011;24384;51.988;4.644;2022-08-03T08:57:01;20.02;;;9.85;;
38629;SDS011;24384;51.988;4.644;2022-08-03T08:59:45;18.33;;;9.45;;
38629;SDS011;24384;51.988;4.644;2022-08-03T09:02:10;22.90;;;9.30;;
38629;SDS011;24384;51.988;4.644;2022-08-03T09:04:37;20.33;;;8.88;;
38629;SDS011;24384;51.988;4.644;2022-08-03T09:07:03;23.40;;;9.25;;
38629;SDS011;24384;51.988;4.644;2022-08-03T09:09:30;18.85;;;9.77;;
38629;SDS011;24384;51.988;4.644;2022-08-03T09:11:55;18.00;;;9.57;;
38629;SDS011;24384;51.988;4.644;2022-08-03T09:14:21;23.52;;;8.80;;
38629;SDS011;24384;51.988;4.644;2022-08-03T09:16:56;22.77;;;8.88;;
38629;SDS011;24384;51.988;4.644;2022-08-03T09:19:27;21.88;;;9.35;;
38629;SDS011;24384;51.988;4.644;2022-08-03T09:22:16;19.05;;;9.18;;
38629;SDS011;24384;51.988;4.644;2022-08-03T09:25:01;18.73;;;9.10;;
38629;SDS011;24384;51.988;4.644;2022-08-03T09:27:40;18.27;;;8.55;;
38629;SDS011;24384;51.988;4.644;2022-08-03T09:30:16;17.13;;;8.55;;
38629;SDS011;24384;51.988;4.644;2022-08-03T09:32:43;24.98;;;8.85;;
38629;SDS011;24384;51.988;4.644;2022-08-03T09:35:10;19.50;;;8.18;;
38629;SDS011;24384;51.988;4.644;2022-08-03T09:37:38;18.35;;;9.32;;
38629;SDS011;24384;51.988;4.644;2022-08-03T09:40:04;21.10;;;9.20;;
38629;SDS011;24384;51.988;4.644;2022-08-03T09:42:30;23.48;;;9.85;;
38629;SDS011;24384;51.988;4.644;2022-08-03T09:44:59;20.38;;;7.70;;
38629;SDS011;24384;51.988;4.644;2022-08-03T09:49:57;17.35;;;7.90;;
38629;SDS011;24384;51.988;4.644;2022-08-03T09:52:29;26.70;;;8.80;;
38629;SDS011;24384;51.988;4.644;2022-08-03T09:54:57;21.92;;;7.93;;
38629;SDS011;24384;51.988;4.644;2022-08-03T09:57:25;19.67;;;8.32;;
38629;SDS011;24384;51.988;4.644;2022-08-03T09:59:51;20.35;;;7.70;;
38629;SDS011;24384;51.988;4.644;2022-08-03T10:02:22;23.80;;;8.32;;
38629;SDS011;24384;51.988;4.644;2022-08-03T10:04:49;18.55;;;7.75;;
38629;SDS011;24384;51.988;4.644;2022-08-03T10:07:17;16.55;;;7.13;;
38629;SDS011;24384;51.988;4.644;2022-08-03T10:09:54;15.90;;;7.95;;
38629;SDS011;24384;51.988;4.644;2022-08-03T10:12:26;16.25;;;7.93;;
38629;SDS011;24384;51.988;4.644;2022-08-03T10:14:53;18.02;;;7.07;;
38629;SDS011;24384;51.988;4.644;2022-08-03T10:17:20;15.93;;;7.28;;
38629;SDS011;24384;51.988;4.644;2022-08-03T10:19:47;17.50;;;8.10;;
38629;SDS011;24384;51.988;4.644;2022-08-03T10:22:14;19.08;;;7.00;;
38629;SDS011;24384;51.988;4.644;2022-08-03T10:27:31;17.90;;;7.60;;
38629;SDS011;24384;51.988;4.644;2022-08-03T10:30:01;19.58;;;6.88;;
38629;SDS011;24384;51.988;4.644;2022-08-03T10:32:30;21.55;;;6.85;;
38629;SDS011;24384;51.988;4.644;2022-08-03T10:35:04;15.27;;;6.47;;
38629;SDS011;24384;51.988;4.644;2022-08-03T10:37:31;14.80;;;6.47;;
38629;SDS011;24384;51.988;4.644;2022-08-03T10:40:01;15.00;;;6.82;;
38629;SDS011;24384;51.988;4.644;2022-08-03T10:42:27;10.63;;;5.32;;
38629;SDS011;24384;51.988;4.644;2022-08-03T10:44:59;14.57;;;5.70;;
38629;SDS011;24384;51.988;4.644;2022-08-03T10:47:29;14.27;;;6.10;;
38629;SDS011;24384;51.988;4.644;2022-08-03T10:49:55;11.63;;;5.95;;
38629;SDS011;24384;51.988;4.644;2022-08-03T10:52:21;18.63;;;6.80;;
38629;SDS011;24384;51.988;4.644;2022-08-03T10:54:47;13.50;;;5.75;;
38629;SDS011;24384;51.988;4.644;2022-08-03T10:57:41;12.15;;;5.28;;
38629;SDS011;24384;51.988;4.644;2022-08-03T11:00:07;14.75;;;5.68;;
38629;SDS011;24384;51.988;4.644;2022-08-03T11:05:30;19.30;;;5.20;;
38629;SDS011;24384;51.988;4.644;2022-08-03T11:08:16;14.05;;;5.60;;
38629;SDS011;24384;51.988;4.644;2022-08-03T11:10:41;11.77;;;5.13;;
38629;SDS011;24384;51.988;4.644;2022-08-03T11:13:07;11.93;;;5.22;;
38629;SDS011;24384;51.988;4.644;2022-08-03T11:15:34;13.23;;;5.28;;
38629;SDS011;24384;51.988;4.644;2022-08-03T11:18:08;14.77;;;6.10;;
38629;SDS011;24384;51.988;4.644;2022-08-03T11:26:18;9.50;;;3.90;;
38629;SDS011;24384;51.988;4.644;2022-08-03T11:28:46;12.60;;;4.65;;
38629;SDS011;24384;51.988;4.644;2022-08-03T11:34:06;14.82;;;4.63;;
38629;SDS011;24384;51.988;4.644;2022-08-03T11:39:42;9.65;;;4.05;;
38629;SDS011;24384;51.988;4.644;2022-08-03T11:44:46;15.18;;;4.10;;
38629;SDS011;24384;51.988;4.644;2022-08-03T11:47:18;12.20;;;4.43;;
38629;SDS011;24384;51.988;4.644;2022-08-03T11:49:46;16.33;;;5.13;;
38629;SDS011;24384;51.988;4.644;2022-08-03T11:52:12;13.15;;;4.63;;
38629;SDS011;24384;51.988;4.644;2022-08-03T11:54:39;15.15;;;5.40;;
38629;SDS011;24384;51.988;4.644;2022-08-03T11:57:05;18.27;;;4.88;;
38629;SDS011;24384;51.988;4.644;2022-08-03T11:59:34;12.82;;;4.20;;
38629;SDS011;24384;51.988;4.644;2022-08-03T12:02:11;14.27;;;3.80;;
38629;SDS011;24384;51.988;4.644;2022-08-03T12:04:51;12.40;;;3.42;;
38629;SDS011;24384;51.988;4.644;2022-08-03T12:07:17;12.70;;;3.85;;
38629;SDS011;24384;51.988;4.644;2022-08-03T12:10:03;11.02;;;3.40;;
38629;SDS011;24384;51.988;4.644;2022-08-03T12:12:32;14.75;;;3.70;;
38629;SDS011;24384;51.988;4.644;2022-08-03T12:14:58;10.98;;;3.38;;
38629;SDS011;24384;51.988;4.644;2022-08-03T12:17:31;13.57;;;4.00;;
38629;SDS011;24384;51.988;4.644;2022-08-03T12:19:58;12.63;;;3.83;;
38629;SDS011;24384;51.988;4.644;2022-08-03T12:22:31;10.80;;;3.40;;
38629;SDS011;24384;51.988;4.644;2022-08-03T12:25:01;11.55;;;4.30;;
38629;SDS011;24384;51.988;4.644;2022-08-03T12:27:27;9.20;;;2.70;;
38629;SDS011;24384;51.988;4.644;2022-08-03T12:29:56;12.02;;;2.85;;
38629;SDS011;24384;51.988;4.644;2022-08-03T12:32:23;10.98;;;3.33;;
38629;SDS011;24384;51.988;4.644;2022-08-03T12:34:50;11.20;;;2.88;;
38629;SDS011;24384;51.988;4.644;2022-08-03T12:37:19;14.35;;;2.65;;
38629;SDS011;24384;51.988;4.644;2022-08-03T12:39:49;14.35;;;3.20;;
38629;SDS011;24384;51.988;4.644;2022-08-03T12:42:16;8.65;;;2.55;;
38629;SDS011;24384;51.988;4.644;2022-08-03T12:44:42;12.75;;;2.67;;
38629;SDS011;24384;51.988;4.644;2022-08-03T12:47:07;7.75;;;2.40;;
38629;SDS011;24384;51.988;4.644;2022-08-03T12:49:47;12.38;;;3.30;;
38629;SDS011;24384;51.988;4.644;2022-08-03T12:52:14;8.95;;;2.45;;
38629;SDS011;24384;51.988;4.644;2022-08-03T12:54:41;8.45;;;2.70;;
38629;SDS011;24384;51.988;4.644;2022-08-03T12:57:09;7.50;;;2.10;;
38629;SDS011;24384;51.988;4.644;2022-08-03T12:59:39;11.82;;;2.20;;
38629;SDS011;24384;51.988;4.644;2022-08-03T13:02:14;12.23;;;2.17;;
38629;SDS011;24384;51.988;4.644;2022-08-03T13:04:41;9.32;;;2.30;;
38629;SDS011;24384;51.988;4.644;2022-08-03T13:07:08;13.25;;;1.85;;
38629;SDS011;24384;51.988;4.644;2022-08-03T13:12:23;7.18;;;2.17;;
38629;SDS011;24384;51.988;4.644;2022-08-03T13:14:52;11.65;;;2.10;;
38629;SDS011;24384;51.988;4.644;2022-08-03T13:17:19;8.43;;;1.85;;
38629;SDS011;24384;51.988;4.644;2022-08-03T13:19:46;9.32;;;1.92;;
38629;SDS011;24384;51.988;4.644;2022-08-03T13:22:20;7.18;;;1.73;;
38629;SDS011;24384;51.988;4.644;2022-08-03T13:24:49;7.63;;;1.88;;
38629;SDS011;24384;51.988;4.644;2022-08-03T13:27:16;6.40;;;1.92;;
38629;SDS011;24384;51.988;4.644;2022-08-03T13:29:41;9.27;;;1.73;;
38629;SDS011;24384;51.988;4.644;2022-08-03T13:32:08;9.00;;;1.58;;
38629;SDS011;24384;51.988;4.644;2022-08-03T13:34:34;6.90;;;1.60;;
38629;SDS011;24384;51.988;4.644;2022-08-03T13:37:00;9.10;;;1.70;;
38629;SDS011;24384;51.988;4.644;2022-08-03T13:39:25;9.63;;;1.85;;
38629;SDS011;24384;51.988;4.644;2022-08-03T13:41:51;7.82;;;1.70;;
38629;SDS011;24384;51.988;4.644;2022-08-03T13:44:17;6.60;;;1.80;;
38629;SDS011;24384;51.988;4.644;2022-08-03T13:46:43;12.20;;;1.92;;
38629;SDS011;24384;51.988;4.644;2022-08-03T13:49:09;8.82;;;1.75;;
38629;SDS011;24384;51.988;4.644;2022-08-03T13:51:34;7.93;;;1.60;;
38629;SDS011;24384;51.988;4.644;2022-08-03T13:54:00;9.48;;;1.60;;
38629;SDS011;24384;51.988;4.644;2022-08-03T13:56:25;6.65;;;1.42;;
38629;SDS011;24384;51.988;4.644;2022-08-03T13:58:51;7.22;;;1.42;;
38629;SDS011;24384;51.988;4.644;2022-08-03T14:01:17;9.25;;;1.52;;
38629;SDS011;24384;51.988;4.644;2022-08-03T14:03:42;8.88;;;2.10;;
38629;SDS011;24384;51.988;4.644;2022-08-03T14:06:08;9.45;;;1.63;;
38629;SDS011;24384;51.988;4.644;2022-08-03T14:08:33;7.63;;;1.50;;
38629;SDS011;24384;51.988;4.644;2022-08-03T14:10:59;5.93;;;1.38;;
38629;SDS011;24384;51.988;4.644;2022-08-03T14:13:24;4.43;;;1.27;;
38629;SDS011;24384;51.988;4.644;2022-08-03T14:15:50;5.80;;;1.48;;
38629;SDS011;24384;51.988;4.644;2022-08-03T14:18:17;7.13;;;1.35;;
38629;SDS011;24384;51.988;4.644;2022-08-03T14:20:44;13.95;;;1.83;;
38629;SDS011;24384;51.988;4.644;2022-08-03T14:23:09;6.97;;;1.60;;
38629;SDS011;24384;51.988;4.644;2022-08-03T14:25:35;12.20;;;1.10;;
38629;SDS011;24384;51.988;4.644;2022-08-03T14:28:00;7.03;;;1.80;;
38629;SDS011;24384;51.988;4.644;2022-08-03T14:30:26;7.28;;;1.48;;
38629;SDS011;24384;51.988;4.644;2022-08-03T14:32:51;10.45;;;1.58;;
38629;SDS011;24384;51.988;4.644;2022-08-03T14:35:16;6.25;;;1.55;;
38629;SDS011;24384;51.988;4.644;2022-08-03T14:37:42;5.78;;;1.50;;
38629;SDS011;24384;51.988;4.644;2022-08-03T14:40:07;9.48;;;1.40;;
38629;SDS011;24384;51.988;4.644;2022-08-03T14:42:33;9.00;;;1.42;;
38629;SDS011;24384;51.988;4.644;2022-08-03T14:44:58;6.85;;;1.63;;
38629;SDS011;24384;51.988;4.644;2022-08-03T14:47:24;9.10;;;1.40;;
38629;SDS011;24384;51.988;4.644;2022-08-03T14:49:49;8.93;;;1.60;;
38629;SDS011;24384;51.988;4.644;2022-08-03T14:52:14;7.93;;;1.30;;
38629;SDS011;24384;51.988;4.644;2022-08-03T14:54:40;5.28;;;1.25;;
38629;SDS011;24384;51.988;4.644;2022-08-03T14:57:05;9.68;;;1.35;;
38629;SDS011;24384;51.988;4.644;2022-08-03T14:59:31;9.25;;;1.33;;
38629;SDS011;24384;51.988;4.644;2022-08-03T15:01:56;7.68;;;1.38;;
38629;SDS011;24384;51.988;4.644;2022-08-03T15:04:22;6.72;;;1.90;;
38629;SDS011;24384;51.988;4.644;2022-08-03T15:06:47;8.93;;;1.92;;
38629;SDS011;24384;51.988;4.644;2022-08-03T15:09:13;10.02;;;1.52;;
38629;SDS011;24384;51.988;4.644;2022-08-03T15:11:38;9.70;;;1.80;;
38629;SDS011;24384;51.988;4.644;2022-08-03T15:14:04;9.15;;;1.50;;